sensor_id;sensor_type;location;lat;lon;timestamp;pressure;altitude;pressure_sealevel;temperature;humidity
73624;BME280;61921;53.226;-1.296;2023-07-24T00:00:19;99342.96;;;12.97;100.00
73624;BME280;61921;53.226;-1.296;2023-07-24T00:02:45;99338.88;;;12.84;100.00
73624;BME280;61921;53.226;-1.296;2023-07-24T00:05:10;99340.56;;;12.86;100.00
73624;BME280;61921;53.226;-1.296;2023-07-24T00:07:35;99342.82;;;12.93;100.00
73624;BME280;61921;53.226;-1.296;2023-07-24T00:10:00;99342.43;;;12.81;100.00
73624;BME280;61921;53.226;-1.296;2023-07-24T00:12:26;99343.74;;;12.83;100.00
73624;BME280;61921;53.226;-1.296;2023-07-24T00:14:52;99344.85;;;12.83;100.00
73624;BME280;61921;53.226;-1.296;2023-07-24T00:17:16;99345.45;;;12.90;100.00
73624;BME280;61921;53.226;-1.296;2023-07-24T00:19:42;99344.39;;;12.94;100.00
73624;BME280;61921;53.226;-1.296;2023-07-24T00:22:07;99341.11;;;12.93;100.00
73624;BME280;61921;53.226;-1.296;2023-07-24T00:24:32;99339.94;;;12.95;100.00
73624;BME280;61921;53.226;-1.296;2023-07-24T00:26:58;99340.68;;;12.97;100.00
73624;BME280;61921;53.226;-1.296;2023-07-24T00:29:23;99336.96;;;12.83;100.00
73624;BME280;61921;53.226;-1.296;2023-07-24T00:31:49;99337.01;;;12.85;100.00
73624;BME280;61921;53.226;-1.296;2023-07-24T00:34:13;99341.18;;;12.70;100.00
73624;BME280;61921;53.226;-1.296;2023-07-24T00:36:39;99340.46;;;12.71;100.00
73624;BME280;61921;53.226;-1.296;2023-07-24T00:39:04;99344.65;;;12.75;100.00
73624;BME280;61921;53.226;-1.296;2023-07-24T00:41:30;99342.42;;;12.85;100.00
73624;BME280;61921;53.226;-1.296;2023-07-24T00:43:55;99345.76;;;12.87;100.00
73624;BME280;61921;53.226;-1.296;2023-07-24T00:46:20;99347.08;;;12.95;100.00
73624;BME280;61921;53.226;-1.296;2023-07-24T00:48:46;99347.49;;;12.85;100.00
73624;BME280;61921;53.226;-1.296;2023-07-24T00:51:11;99347.21;;;12.85;100.00
73624;BME280;61921;53.226;-1.296;2023-07-24T00:53:36;99345.47;;;12.82;100.00
73624;BME280;61921;53.226;-1.296;2023-07-24T00:56:02;99346.76;;;12.93;100.00
73624;BME280;61921;53.226;-1.296;2023-07-24T00:58:27;99349.39;;;13.04;100.00
73624;BME280;61921;53.226;-1.296;2023-07-24T01:00:52;99347.04;;;12.91;100.00
73624;BME280;61921;53.226;-1.296;2023-07-24T01:03:17;99341.16;;;12.85;100.00
73624;BME280;61921;53.226;-1.296;2023-07-24T01:05:43;99343.09;;;12.72;100.00
73624;BME280;61921;53.226;-1.296;2023-07-24T01:08:08;99338.08;;;12.80;100.00
73624;BME280;61921;53.226;-1.296;2023-07-24T01:10:33;99342.64;;;12.85;100.00
73624;BME280;61921;53.226;-1.296;2023-07-24T01:13:02;99339.05;;;12.67;100.00
73624;BME280;61921;53.226;-1.296;2023-07-24T01:15:30;99342.09;;;12.65;100.00
73624;BME280;61921;53.226;-1.296;2023-07-24T01:17:59;99345.20;;;12.60;100.00
73624;BME280;61921;53.226;-1.296;2023-07-24T01:20:17;99342.81;;;12.71;100.00
73624;BME280;61921;53.226;-1.296;2023-07-24T01:22:48;99346.56;;;12.77;100.00
73624;BME280;61921;53.226;-1.296;2023-07-24T01:25:10;99344.50;;;12.66;100.00
73624;BME280;61921;53.226;-1.296;2023-07-24T01:27:31;99347.63;;;12.68;100.00
73624;BME280;61921;53.226;-1.296;2023-07-24T01:29:57;99349.25;;;12.64;100.00
73624;BME280;61921;53.226;-1.296;2023-07-24T01:32:22;99349.58;;;12.71;100.00
73624;BME280;61921;53.226;-1.296;2023-07-24T01:34:47;99348.19;;;12.73;100.00
73624;BME280;61921;53.226;-1.296;2023-07-24T01:37:13;99349.06;;;12.74;100.00
73624;BME280;61921;53.226;-1.296;2023-07-24T01:39:38;99352.18;;;12.77;100.00
73624;BME280;61921;53.226;-1.296;2023-07-24T01:42:03;99349.26;;;12.59;100.00
73624;BME280;61921;53.226;-1.296;2023-07-24T01:44:28;99347.95;;;12.55;100.00
73624;BME280;61921;53.226;-1.296;2023-07-24T01:46:54;99349.48;;;12.53;100.00
73624;BME280;61921;53.226;-1.296;2023-07-24T01:49:19;99349.18;;;12.51;100.00
73624;BME280;61921;53.226;-1.296;2023-07-24T01:51:44;99347.84;;;12.49;100.00
73624;BME280;61921;53.226;-1.296;2023-07-24T01:54:10;99348.22;;;12.54;100.00
73624;BME280;61921;53.226;-1.296;2023-07-24T01:56:36;99349.04;;;12.62;100.00
73624;BME280;61921;53.226;-1.296;2023-07-24T01:59:00;99346.55;;;12.61;100.00
73624;BME280;61921;53.226;-1.296;2023-07-24T02:01:26;99343.87;;;12.62;100.00
73624;BME280;61921;53.226;-1.296;2023-07-24T02:03:51;99341.32;;;12.69;100.00
73624;BME280;61921;53.226;-1.296;2023-07-24T02:06:16;99341.47;;;12.56;100.00
73624;BME280;61921;53.226;-1.296;2023-07-24T02:08:41;99344.08;;;12.67;100.00
73624;BME280;61921;53.226;-1.296;2023-07-24T02:11:07;99345.16;;;12.61;100.00
73624;BME280;61921;53.226;-1.296;2023-07-24T02:13:32;99343.58;;;12.52;100.00
73624;BME280;61921;53.226;-1.296;2023-07-24T02:15:58;99344.92;;;12.39;100.00
73624;BME280;61921;53.226;-1.296;2023-07-24T02:18:23;99343.34;;;12.55;100.00
73624;BME280;61921;53.226;-1.296;2023-07-24T02:20:49;99344.12;;;12.55;100.00
73624;BME280;61921;53.226;-1.296;2023-07-24T02:23:13;99342.20;;;12.44;100.00
73624;BME280;61921;53.226;-1.296;2023-07-24T02:25:39;99341.35;;;12.51;100.00
73624;BME280;61921;53.226;-1.296;2023-07-24T02:28:04;99344.54;;;12.41;100.00
73624;BME280;61921;53.226;-1.296;2023-07-24T02:30:29;99343.72;;;12.41;100.00
73624;BME280;61921;53.226;-1.296;2023-07-24T02:32:55;99342.93;;;12.45;100.00
73624;BME280;61921;53.226;-1.296;2023-07-24T02:35:20;99345.09;;;12.38;100.00
73624;BME280;61921;53.226;-1.296;2023-07-24T02:37:45;99342.09;;;12.44;100.00
73624;BME280;61921;53.226;-1.296;2023-07-24T02:40:12;99344.77;;;12.44;100.00
73624;BME280;61921;53.226;-1.296;2023-07-24T02:42:36;99347.24;;;12.35;100.00
73624;BME280;61921;53.226;-1.296;2023-07-24T02:45:02;99350.99;;;12.42;100.00
73624;BME280;61921;53.226;-1.296;2023-07-24T02:47:27;99355.19;;;12.47;100.00
73624;BME280;61921;53.226;-1.296;2023-07-24T02:49:53;99357.07;;;12.35;100.00
73624;BME280;61921;53.226;-1.296;2023-07-24T02:52:18;99358.90;;;12.26;100.00
73624;BME280;61921;53.226;-1.296;2023-07-24T02:54:44;99354.79;;;12.39;100.00
73624;BME280;61921;53.226;-1.296;2023-07-24T02:57:09;99359.51;;;12.39;100.00
73624;BME280;61921;53.226;-1.296;2023-07-24T02:59:34;99360.36;;;12.46;100.00
73624;BME280;61921;53.226;-1.296;2023-07-24T03:02:00;99357.30;;;12.42;100.00
73624;BME280;61921;53.226;-1.296;2023-07-24T03:04:25;99356.03;;;12.61;100.00
73624;BME280;61921;53.226;-1.296;2023-07-24T03:06:50;99356.16;;;12.51;100.00
73624;BME280;61921;53.226;-1.296;2023-07-24T03:09:17;99357.40;;;12.44;100.00
73624;BME280;61921;53.226;-1.296;2023-07-24T03:11:41;99358.47;;;12.46;100.00
73624;BME280;61921;53.226;-1.296;2023-07-24T03:14:07;99355.73;;;12.48;100.00
73624;BME280;61921;53.226;-1.296;2023-07-24T03:16:32;99355.72;;;12.45;100.00
73624;BME280;61921;53.226;-1.296;2023-07-24T03:18:57;99356.32;;;12.50;100.00
73624;BME280;61921;53.226;-1.296;2023-07-24T03:21:24;99353.98;;;12.39;100.00
73624;BME280;61921;53.226;-1.296;2023-07-24T03:23:49;99348.98;;;12.40;100.00
73624;BME280;61921;53.226;-1.296;2023-07-24T03:26:14;99350.77;;;12.57;100.00
73624;BME280;61921;53.226;-1.296;2023-07-24T03:28:39;99353.42;;;12.67;100.00
73624;BME280;61921;53.226;-1.296;2023-07-24T03:31:04;99349.13;;;12.75;100.00
73624;BME280;61921;53.226;-1.296;2023-07-24T03:33:30;99350.87;;;12.71;100.00
73624;BME280;61921;53.226;-1.296;2023-07-24T03:35:55;99347.92;;;12.71;100.00
73624;BME280;61921;53.226;-1.296;2023-07-24T03:38:20;99350.36;;;12.55;100.00
73624;BME280;61921;53.226;-1.296;2023-07-24T03:40:46;99347.50;;;12.46;100.00
73624;BME280;61921;53.226;-1.296;2023-07-24T03:43:11;99344.73;;;12.55;100.00
73624;BME280;61921;53.226;-1.296;2023-07-24T03:45:36;99346.32;;;12.53;100.00
73624;BME280;61921;53.226;-1.296;2023-07-24T03:48:03;99347.43;;;12.58;100.00
73624;BME280;61921;53.226;-1.296;2023-07-24T03:50:29;99345.64;;;12.44;100.00
73624;BME280;61921;53.226;-1.296;2023-07-24T03:52:53;99348.53;;;12.47;100.00
73624;BME280;61921;53.226;-1.296;2023-07-24T03:55:18;99346.85;;;12.47;100.00
73624;BME280;61921;53.226;-1.296;2023-07-24T03:57:44;99347.71;;;12.51;100.00
73624;BME280;61921;53.226;-1.296;2023-07-24T04:00:10;99351.16;;;12.54;100.00
73624;BME280;61921;53.226;-1.296;2023-07-24T04:02:34;99351.60;;;12.53;100.00
73624;BME280;61921;53.226;-1.296;2023-07-24T04:05:00;99352.36;;;12.61;100.00
73624;BME280;61921;53.226;-1.296;2023-07-24T04:07:25;99351.96;;;12.77;100.00
73624;BME280;61921;53.226;-1.296;2023-07-24T04:09:50;99352.25;;;12.60;100.00
73624;BME280;61921;53.226;-1.296;2023-07-24T04:12:16;99354.18;;;12.58;100.00
73624;BME280;61921;53.226;-1.296;2023-07-24T04:14:41;99353.07;;;12.55;100.00
73624;BME280;61921;53.226;-1.296;2023-07-24T04:17:07;99353.85;;;12.59;100.00
73624;BME280;61921;53.226;-1.296;2023-07-24T04:19:32;99352.20;;;12.61;100.00
73624;BME280;61921;53.226;-1.296;2023-07-24T04:21:57;99353.93;;;12.80;100.00
73624;BME280;61921;53.226;-1.296;2023-07-24T04:24:22;99360.43;;;12.83;100.00
73624;BME280;61921;53.226;-1.296;2023-07-24T04:26:48;99358.56;;;12.72;100.00
73624;BME280;61921;53.226;-1.296;2023-07-24T04:29:14;99359.22;;;12.77;100.00
73624;BME280;61921;53.226;-1.296;2023-07-24T04:31:39;99356.35;;;12.79;100.00
73624;BME280;61921;53.226;-1.296;2023-07-24T04:34:04;99359.35;;;12.72;100.00
73624;BME280;61921;53.226;-1.296;2023-07-24T04:36:29;99359.44;;;12.76;100.00
73624;BME280;61921;53.226;-1.296;2023-07-24T04:38:54;99358.49;;;12.78;100.00
73624;BME280;61921;53.226;-1.296;2023-07-24T04:41:20;99360.21;;;12.72;100.00
73624;BME280;61921;53.226;-1.296;2023-07-24T04:43:45;99362.88;;;12.64;100.00
73624;BME280;61921;53.226;-1.296;2023-07-24T04:46:10;99368.19;;;12.81;100.00
73624;BME280;61921;53.226;-1.296;2023-07-24T04:48:36;99373.07;;;12.88;100.00
73624;BME280;61921;53.226;-1.296;2023-07-24T04:51:01;99375.99;;;12.83;100.00
73624;BME280;61921;53.226;-1.296;2023-07-24T04:53:26;99378.93;;;12.84;100.00
73624;BME280;61921;53.226;-1.296;2023-07-24T04:55:52;99384.04;;;12.82;100.00
73624;BME280;61921;53.226;-1.296;2023-07-24T04:58:17;99385.66;;;12.91;100.00
73624;BME280;61921;53.226;-1.296;2023-07-24T05:00:42;99387.67;;;12.94;100.00
73624;BME280;61921;53.226;-1.296;2023-07-24T05:03:08;99392.38;;;12.90;100.00
73624;BME280;61921;53.226;-1.296;2023-07-24T05:05:33;99393.95;;;12.97;100.00
73624;BME280;61921;53.226;-1.296;2023-07-24T05:07:58;99395.93;;;12.84;100.00
73624;BME280;61921;53.226;-1.296;2023-07-24T05:10:24;99394.41;;;12.82;100.00
73624;BME280;61921;53.226;-1.296;2023-07-24T05:12:49;99392.36;;;12.84;100.00
73624;BME280;61921;53.226;-1.296;2023-07-24T05:15:15;99398.10;;;12.97;100.00
73624;BME280;61921;53.226;-1.296;2023-07-24T05:17:40;99396.79;;;12.95;100.00
73624;BME280;61921;53.226;-1.296;2023-07-24T05:20:07;99398.42;;;13.00;100.00
73624;BME280;61921;53.226;-1.296;2023-07-24T05:22:30;99402.11;;;13.00;100.00
73624;BME280;61921;53.226;-1.296;2023-07-24T05:24:56;99399.00;;;12.81;100.00
73624;BME280;61921;53.226;-1.296;2023-07-24T05:27:21;99398.65;;;12.80;100.00
73624;BME280;61921;53.226;-1.296;2023-07-24T05:29:46;99400.09;;;12.79;100.00
73624;BME280;61921;53.226;-1.296;2023-07-24T05:32:12;99398.55;;;12.81;100.00
73624;BME280;61921;53.226;-1.296;2023-07-24T05:34:37;99404.18;;;12.91;100.00
73624;BME280;61921;53.226;-1.296;2023-07-24T05:37:04;99404.80;;;13.03;100.00
73624;BME280;61921;53.226;-1.296;2023-07-24T05:39:30;99408.95;;;13.02;100.00
73624;BME280;61921;53.226;-1.296;2023-07-24T05:41:54;99415.31;;;13.08;100.00
73624;BME280;61921;53.226;-1.296;2023-07-24T05:44:20;99414.78;;;13.02;100.00
73624;BME280;61921;53.226;-1.296;2023-07-24T05:46:45;99418.63;;;13.04;100.00
73624;BME280;61921;53.226;-1.296;2023-07-24T05:49:10;99421.56;;;13.06;100.00
73624;BME280;61921;53.226;-1.296;2023-07-24T05:51:36;99420.34;;;13.05;100.00
73624;BME280;61921;53.226;-1.296;2023-07-24T05:54:01;99424.35;;;12.99;100.00
73624;BME280;61921;53.226;-1.296;2023-07-24T05:56:26;99426.37;;;12.96;100.00
73624;BME280;61921;53.226;-1.296;2023-07-24T05:58:52;99425.05;;;12.83;100.00
73624;BME280;61921;53.226;-1.296;2023-07-24T06:01:17;99427.44;;;12.79;100.00
73624;BME280;61921;53.226;-1.296;2023-07-24T06:03:42;99427.27;;;12.84;100.00
73624;BME280;61921;53.226;-1.296;2023-07-24T06:06:07;99429.88;;;12.84;100.00
73624;BME280;61921;53.226;-1.296;2023-07-24T06:08:32;99436.51;;;12.92;100.00
73624;BME280;61921;53.226;-1.296;2023-07-24T06:10:58;99435.01;;;12.83;100.00
73624;BME280;61921;53.226;-1.296;2023-07-24T06:13:23;99440.05;;;12.90;100.00
73624;BME280;61921;53.226;-1.296;2023-07-24T06:15:49;99440.02;;;13.01;100.00
73624;BME280;61921;53.226;-1.296;2023-07-24T06:18:14;99441.56;;;12.78;100.00
73624;BME280;61921;53.226;-1.296;2023-07-24T06:20:39;99440.92;;;12.81;100.00
73624;BME280;61921;53.226;-1.296;2023-07-24T06:23:05;99444.36;;;12.73;100.00
73624;BME280;61921;53.226;-1.296;2023-07-24T06:25:30;99449.00;;;12.80;100.00
73624;BME280;61921;53.226;-1.296;2023-07-24T06:27:56;99451.75;;;12.85;100.00
73624;BME280;61921;53.226;-1.296;2023-07-24T06:30:21;99455.21;;;12.93;100.00
73624;BME280;61921;53.226;-1.296;2023-07-24T06:32:47;99452.62;;;12.89;100.00
73624;BME280;61921;53.226;-1.296;2023-07-24T06:35:12;99458.59;;;12.90;100.00
73624;BME280;61921;53.226;-1.296;2023-07-24T06:37:38;99462.00;;;12.92;100.00
73624;BME280;61921;53.226;-1.296;2023-07-24T06:40:04;99462.70;;;12.92;100.00
73624;BME280;61921;53.226;-1.296;2023-07-24T06:42:28;99460.94;;;12.97;100.00
73624;BME280;61921;53.226;-1.296;2023-07-24T06:44:54;99460.87;;;12.88;100.00
73624;BME280;61921;53.226;-1.296;2023-07-24T06:47:20;99464.80;;;12.86;100.00
73624;BME280;61921;53.226;-1.296;2023-07-24T06:49:45;99465.25;;;12.84;100.00
73624;BME280;61921;53.226;-1.296;2023-07-24T06:52:10;99468.37;;;12.86;100.00
73624;BME280;61921;53.226;-1.296;2023-07-24T06:54:36;99470.86;;;12.70;100.00
73624;BME280;61921;53.226;-1.296;2023-07-24T06:57:02;99473.10;;;12.65;100.00
73624;BME280;61921;53.226;-1.296;2023-07-24T06:59:26;99476.12;;;12.54;100.00
73624;BME280;61921;53.226;-1.296;2023-07-24T07:01:52;99478.62;;;12.60;100.00
73624;BME280;61921;53.226;-1.296;2023-07-24T07:04:17;99480.02;;;12.64;100.00
73624;BME280;61921;53.226;-1.296;2023-07-24T07:06:42;99480.89;;;12.59;100.00
73624;BME280;61921;53.226;-1.296;2023-07-24T07:09:07;99480.47;;;12.57;100.00
73624;BME280;61921;53.226;-1.296;2023-07-24T07:11:32;99479.61;;;12.66;100.00
73624;BME280;61921;53.226;-1.296;2023-07-24T07:13:58;99482.77;;;12.66;100.00
73624;BME280;61921;53.226;-1.296;2023-07-24T07:16:24;99488.15;;;12.80;100.00
73624;BME280;61921;53.226;-1.296;2023-07-24T07:18:49;99487.86;;;12.84;100.00
73624;BME280;61921;53.226;-1.296;2023-07-24T07:21:15;99488.27;;;12.70;100.00
73624;BME280;61921;53.226;-1.296;2023-07-24T07:23:40;99498.21;;;12.98;100.00
73624;BME280;61921;53.226;-1.296;2023-07-24T07:26:05;99497.21;;;12.73;100.00
73624;BME280;61921;53.226;-1.296;2023-07-24T07:28:31;99499.45;;;12.85;100.00
73624;BME280;61921;53.226;-1.296;2023-07-24T07:30:56;99502.49;;;12.78;100.00
73624;BME280;61921;53.226;-1.296;2023-07-24T07:33:21;99511.23;;;13.07;100.00
73624;BME280;61921;53.226;-1.296;2023-07-24T07:35:46;99509.53;;;13.04;100.00
73624;BME280;61921;53.226;-1.296;2023-07-24T07:38:12;99513.39;;;13.06;100.00
73624;BME280;61921;53.226;-1.296;2023-07-24T07:40:38;99515.95;;;13.06;100.00
73624;BME280;61921;53.226;-1.296;2023-07-24T07:43:03;99518.54;;;13.30;100.00
73624;BME280;61921;53.226;-1.296;2023-07-24T07:45:29;99517.25;;;13.30;100.00
73624;BME280;61921;53.226;-1.296;2023-07-24T07:47:54;99520.47;;;13.05;100.00
73624;BME280;61921;53.226;-1.296;2023-07-24T07:50:19;99520.75;;;13.00;100.00
73624;BME280;61921;53.226;-1.296;2023-07-24T07:52:45;99519.84;;;13.08;100.00
73624;BME280;61921;53.226;-1.296;2023-07-24T07:55:10;99518.55;;;13.09;100.00
73624;BME280;61921;53.226;-1.296;2023-07-24T07:57:36;99523.67;;;13.01;100.00
73624;BME280;61921;53.226;-1.296;2023-07-24T08:00:01;99526.87;;;12.99;100.00
73624;BME280;61921;53.226;-1.296;2023-07-24T08:02:26;99529.49;;;13.01;100.00
73624;BME280;61921;53.226;-1.296;2023-07-24T08:04:51;99527.02;;;12.93;100.00
73624;BME280;61921;53.226;-1.296;2023-07-24T08:07:17;99529.44;;;13.09;100.00
73624;BME280;61921;53.226;-1.296;2023-07-24T08:09:42;99533.59;;;13.27;100.00
73624;BME280;61921;53.226;-1.296;2023-07-24T08:12:09;99539.43;;;13.23;100.00
73624;BME280;61921;53.226;-1.296;2023-07-24T08:14:33;99537.44;;;13.18;100.00
73624;BME280;61921;53.226;-1.296;2023-07-24T08:16:58;99538.49;;;13.30;100.00
73624;BME280;61921;53.226;-1.296;2023-07-24T08:19:28;99539.93;;;13.34;100.00
73624;BME280;61921;53.226;-1.296;2023-07-24T08:21:49;99542.05;;;13.12;100.00
73624;BME280;61921;53.226;-1.296;2023-07-24T08:24:15;99535.90;;;13.14;100.00
73624;BME280;61921;53.226;-1.296;2023-07-24T08:26:40;99536.12;;;13.24;100.00
73624;BME280;61921;53.226;-1.296;2023-07-24T08:29:06;99539.86;;;13.22;100.00
73624;BME280;61921;53.226;-1.296;2023-07-24T08:31:31;99539.50;;;13.29;100.00
73624;BME280;61921;53.226;-1.296;2023-07-24T08:33:56;99540.65;;;13.37;100.00
73624;BME280;61921;53.226;-1.296;2023-07-24T08:36:22;99543.86;;;13.33;100.00
73624;BME280;61921;53.226;-1.296;2023-07-24T08:38:47;99551.40;;;13.34;100.00
73624;BME280;61921;53.226;-1.296;2023-07-24T08:41:13;99552.96;;;13.23;100.00
73624;BME280;61921;53.226;-1.296;2023-07-24T08:43:39;99554.63;;;13.30;100.00
73624;BME280;61921;53.226;-1.296;2023-07-24T08:46:04;99555.51;;;13.44;100.00
73624;BME280;61921;53.226;-1.296;2023-07-24T08:48:30;99557.50;;;13.50;100.00
73624;BME280;61921;53.226;-1.296;2023-07-24T08:50:53;99555.14;;;13.47;100.00
73624;BME280;61921;53.226;-1.296;2023-07-24T08:53:19;99560.87;;;13.49;100.00
73624;BME280;61921;53.226;-1.296;2023-07-24T08:55:45;99562.17;;;13.70;100.00
73624;BME280;61921;53.226;-1.296;2023-07-24T08:58:09;99563.69;;;13.71;100.00
73624;BME280;61921;53.226;-1.296;2023-07-24T09:00:35;99567.58;;;13.74;100.00
73624;BME280;61921;53.226;-1.296;2023-07-24T09:03:00;99570.78;;;13.78;100.00
73624;BME280;61921;53.226;-1.296;2023-07-24T09:05:25;99575.57;;;13.90;100.00
73624;BME280;61921;53.226;-1.296;2023-07-24T09:07:50;99580.04;;;13.93;100.00
73624;BME280;61921;53.226;-1.296;2023-07-24T09:10:16;99566.22;;;13.99;100.00
73624;BME280;61921;53.226;-1.296;2023-07-24T09:12:42;99564.95;;;14.06;100.00
73624;BME280;61921;53.226;-1.296;2023-07-24T09:15:07;99565.49;;;14.01;100.00
73624;BME280;61921;53.226;-1.296;2023-07-24T09:17:32;99568.59;;;14.22;100.00
73624;BME280;61921;53.226;-1.296;2023-07-24T09:19:57;99571.66;;;14.34;100.00
73624;BME280;61921;53.226;-1.296;2023-07-24T09:22:22;99571.95;;;14.45;100.00
73624;BME280;61921;53.226;-1.296;2023-07-24T09:24:49;99570.02;;;14.57;100.00
73624;BME280;61921;53.226;-1.296;2023-07-24T09:27:13;99578.48;;;14.81;100.00
73624;BME280;61921;53.226;-1.296;2023-07-24T09:29:39;99581.54;;;14.54;100.00
73624;BME280;61921;53.226;-1.296;2023-07-24T09:32:05;99582.55;;;14.37;100.00
73624;BME280;61921;53.226;-1.296;2023-07-24T09:34:29;99584.14;;;14.44;100.00
73624;BME280;61921;53.226;-1.296;2023-07-24T09:36:55;99585.16;;;14.79;100.00
73624;BME280;61921;53.226;-1.296;2023-07-24T09:39:23;99585.32;;;15.00;100.00
73624;BME280;61921;53.226;-1.296;2023-07-24T09:41:45;99580.69;;;15.00;100.00
73624;BME280;61921;53.226;-1.296;2023-07-24T09:44:12;99584.32;;;14.92;100.00
73624;BME280;61921;53.226;-1.296;2023-07-24T09:46:36;99579.52;;;15.05;100.00
73624;BME280;61921;53.226;-1.296;2023-07-24T09:49:02;99577.93;;;15.09;100.00
73624;BME280;61921;53.226;-1.296;2023-07-24T09:51:29;99580.68;;;15.20;100.00
73624;BME280;61921;53.226;-1.296;2023-07-24T09:53:56;99583.63;;;15.54;100.00
73624;BME280;61921;53.226;-1.296;2023-07-24T09:56:18;99576.32;;;15.72;100.00
73624;BME280;61921;53.226;-1.296;2023-07-24T09:58:44;99578.94;;;15.65;100.00
73624;BME280;61921;53.226;-1.296;2023-07-24T10:01:10;99586.43;;;15.55;100.00
73624;BME280;61921;53.226;-1.296;2023-07-24T10:03:34;99580.50;;;15.78;98.52
73624;BME280;61921;53.226;-1.296;2023-07-24T10:06:00;99580.48;;;15.88;96.71
73624;BME280;61921;53.226;-1.296;2023-07-24T10:08:24;99580.39;;;15.90;93.39
73624;BME280;61921;53.226;-1.296;2023-07-24T10:10:49;99581.27;;;15.83;94.12
73624;BME280;61921;53.226;-1.296;2023-07-24T10:13:16;99580.77;;;15.87;95.87
73624;BME280;61921;53.226;-1.296;2023-07-24T10:15:40;99581.88;;;16.08;93.85
73624;BME280;61921;53.226;-1.296;2023-07-24T10:18:06;99582.13;;;16.26;92.26
73624;BME280;61921;53.226;-1.296;2023-07-24T10:20:35;99583.03;;;16.27;94.15
73624;BME280;61921;53.226;-1.296;2023-07-24T10:23:01;99589.66;;;16.26;92.21
73624;BME280;61921;53.226;-1.296;2023-07-24T10:25:28;99592.86;;;16.34;94.44
73624;BME280;61921;53.226;-1.296;2023-07-24T10:27:46;99591.62;;;16.30;91.63
73624;BME280;61921;53.226;-1.296;2023-07-24T10:30:11;99591.72;;;16.17;93.27
73624;BME280;61921;53.226;-1.296;2023-07-24T10:32:45;99597.33;;;16.41;89.86
73624;BME280;61921;53.226;-1.296;2023-07-24T10:35:08;99595.73;;;16.55;91.84
73624;BME280;61921;53.226;-1.296;2023-07-24T10:37:33;99595.61;;;16.54;88.75
73624;BME280;61921;53.226;-1.296;2023-07-24T10:39:53;99595.89;;;16.64;87.57
73624;BME280;61921;53.226;-1.296;2023-07-24T10:42:22;99597.96;;;16.58;86.82
73624;BME280;61921;53.226;-1.296;2023-07-24T10:44:44;99602.45;;;16.28;87.17
73624;BME280;61921;53.226;-1.296;2023-07-24T10:47:10;99602.55;;;16.60;89.04
73624;BME280;61921;53.226;-1.296;2023-07-24T10:49:34;99600.49;;;16.73;86.33
73624;BME280;61921;53.226;-1.296;2023-07-24T10:51:59;99601.50;;;16.93;87.46
73624;BME280;61921;53.226;-1.296;2023-07-24T10:54:24;99600.55;;;16.95;87.31
73624;BME280;61921;53.226;-1.296;2023-07-24T10:56:49;99596.22;;;17.20;84.04
73624;BME280;61921;53.226;-1.296;2023-07-24T10:59:14;99600.15;;;17.46;82.67
73624;BME280;61921;53.226;-1.296;2023-07-24T11:01:40;99601.76;;;17.52;79.91
73624;BME280;61921;53.226;-1.296;2023-07-24T11:04:05;99601.89;;;17.88;81.71
73624;BME280;61921;53.226;-1.296;2023-07-24T11:06:30;99600.96;;;18.49;81.02
73624;BME280;61921;53.226;-1.296;2023-07-24T11:08:56;99598.39;;;19.07;76.73
73624;BME280;61921;53.226;-1.296;2023-07-24T11:11:20;99600.86;;;19.56;77.04
73624;BME280;61921;53.226;-1.296;2023-07-24T11:13:45;99605.51;;;19.04;78.31
73624;BME280;61921;53.226;-1.296;2023-07-24T11:16:11;99608.06;;;18.27;76.94
73624;BME280;61921;53.226;-1.296;2023-07-24T11:18:44;99609.01;;;18.08;78.43
73624;BME280;61921;53.226;-1.296;2023-07-24T11:21:02;99608.40;;;18.20;77.42
73624;BME280;61921;53.226;-1.296;2023-07-24T11:23:28;99615.90;;;18.56;75.27
73624;BME280;61921;53.226;-1.296;2023-07-24T11:25:53;99617.95;;;18.98;75.07
73624;BME280;61921;53.226;-1.296;2023-07-24T11:28:17;99614.14;;;19.12;75.07
73624;BME280;61921;53.226;-1.296;2023-07-24T11:30:43;99618.63;;;18.52;74.74
73624;BME280;61921;53.226;-1.296;2023-07-24T11:33:09;99621.82;;;18.07;76.32
73624;BME280;61921;53.226;-1.296;2023-07-24T11:35:33;99623.01;;;17.90;75.08
73624;BME280;61921;53.226;-1.296;2023-07-24T11:37:58;99616.56;;;17.55;76.80
73624;BME280;61921;53.226;-1.296;2023-07-24T11:40:30;99622.95;;;17.31;78.35
73624;BME280;61921;53.226;-1.296;2023-07-24T11:42:49;99627.43;;;17.26;78.91
73624;BME280;61921;53.226;-1.296;2023-07-24T11:45:14;99627.16;;;16.96;79.14
73624;BME280;61921;53.226;-1.296;2023-07-24T11:47:45;99629.99;;;17.22;78.08
73624;BME280;61921;53.226;-1.296;2023-07-24T11:50:05;99624.50;;;17.49;77.96
73624;BME280;61921;53.226;-1.296;2023-07-24T11:52:37;99631.19;;;17.38;76.45
73624;BME280;61921;53.226;-1.296;2023-07-24T11:54:57;99629.95;;;17.45;77.93
73624;BME280;61921;53.226;-1.296;2023-07-24T11:57:20;99631.30;;;17.65;75.40
73624;BME280;61921;53.226;-1.296;2023-07-24T11:59:45;99632.18;;;17.93;75.58
73624;BME280;61921;53.226;-1.296;2023-07-24T12:02:10;99634.02;;;18.19;73.13
73624;BME280;61921;53.226;-1.296;2023-07-24T12:04:35;99636.72;;;18.42;72.23
73624;BME280;61921;53.226;-1.296;2023-07-24T12:07:00;99633.90;;;18.88;73.64
73624;BME280;61921;53.226;-1.296;2023-07-24T12:09:29;99637.93;;;18.44;71.07
73624;BME280;61921;53.226;-1.296;2023-07-24T12:11:50;99636.72;;;18.19;71.49
73624;BME280;61921;53.226;-1.296;2023-07-24T12:14:16;99637.97;;;17.86;74.07
73624;BME280;61921;53.226;-1.296;2023-07-24T12:16:42;99638.49;;;18.22;72.49
73624;BME280;61921;53.226;-1.296;2023-07-24T12:19:07;99645.31;;;18.18;72.41
73624;BME280;61921;53.226;-1.296;2023-07-24T12:21:32;99646.21;;;18.07;71.64
73624;BME280;61921;53.226;-1.296;2023-07-24T12:23:57;99647.18;;;18.08;71.01
73624;BME280;61921;53.226;-1.296;2023-07-24T12:26:22;99649.35;;;18.03;72.15
73624;BME280;61921;53.226;-1.296;2023-07-24T12:28:47;99652.53;;;18.41;71.34
73624;BME280;61921;53.226;-1.296;2023-07-24T12:31:12;99649.90;;;18.36;71.09